sensor_id;sensor_type;location;lat;lon;timestamp;P1;durP1;ratioP1;P2;durP2;ratioP2
51124;SDS011;37163;55.556;39.108;2023-09-07T00:01:00;0.00;;;0.00;;
51124;SDS011;37163;55.556;39.108;2023-09-07T00:03:32;0.00;;;0.00;;
51124;SDS011;37163;55.556;39.108;2023-09-07T00:06:06;0.00;;;0.00;;
51124;SDS011;37163;55.556;39.108;2023-09-07T00:08:36;0.00;;;0.00;;
51124;SDS011;37163;55.556;39.108;2023-09-07T00:11:06;0.00;;;0.00;;
51124;SDS011;37163;55.556;39.108;2023-09-07T00:13:36;0.28;;;0.20;;
51124;SDS011;37163;55.556;39.108;2023-09-07T00:16:05;0.13;;;0.00;;
51124;SDS011;37163;55.556;39.108;2023-09-07T00:18:36;0.00;;;0.00;;
51124;SDS011;37163;55.556;39.108;2023-09-07T00:21:05;0.20;;;0.00;;
51124;SDS011;37163;55.556;39.108;2023-09-07T00:23:34;0.22;;;0.10;;
51124;SDS011;37163;55.556;39.108;2023-09-07T00:26:05;0.00;;;0.00;;
51124;SDS011;37163;55.556;39.108;2023-09-07T00:28:35;0.00;;;0.00;;
51124;SDS011;37163;55.556;39.108;2023-09-07T00:31:05;0.00;;;0.00;;
51124;SDS011;37163;55.556;39.108;2023-09-07T00:33:34;0.28;;;0.00;;
51124;SDS011;37163;55.556;39.108;2023-09-07T00:36:03;0.15;;;0.08;;
51124;SDS011;37163;55.556;39.108;2023-09-07T00:38:51;0.00;;;0.00;;
51124;SDS011;37163;55.556;39.108;2023-09-07T00:41:20;0.28;;;0.00;;
51124;SDS011;37163;55.556;39.108;2023-09-07T00:43:49;0.08;;;0.08;;
51124;SDS011;37163;55.556;39.108;2023-09-07T00:46:18;0.08;;;0.08;;
51124;SDS011;37163;55.556;39.108;2023-09-07T00:48:48;0.00;;;0.00;;
51124;SDS011;37163;55.556;39.108;2023-09-07T00:51:18;0.00;;;0.00;;
51124;SDS011;37163;55.556;39.108;2023-09-07T00:53:48;0.28;;;0.03;;
51124;SDS011;37163;55.556;39.108;2023-09-07T00:56:18;0.13;;;0.13;;
51124;SDS011;37163;55.556;39.108;2023-09-07T00:58:47;0.15;;;0.00;;
51124;SDS011;37163;55.556;39.108;2023-09-07T01:01:17;0.90;;;0.35;;
51124;SDS011;37163;55.556;39.108;2023-09-07T01:03:48;0.00;;;0.00;;
51124;SDS011;37163;55.556;39.108;2023-09-07T01:06:29;0.20;;;0.03;;
51124;SDS011;37163;55.556;39.108;2023-09-07T01:09:04;0.00;;;0.00;;
51124;SDS011;37163;55.556;39.108;2023-09-07T01:11:40;0.45;;;0.00;;
51124;SDS011;37163;55.556;39.108;2023-09-07T01:14:10;0.30;;;0.10;;
51124;SDS011;37163;55.556;39.108;2023-09-07T01:16:40;0.00;;;0.00;;
51124;SDS011;37163;55.556;39.108;2023-09-07T01:19:10;0.00;;;0.00;;
51124;SDS011;37163;55.556;39.108;2023-09-07T01:21:39;0.10;;;0.10;;
51124;SDS011;37163;55.556;39.108;2023-09-07T01:24:09;0.00;;;0.00;;
51124;SDS011;37163;55.556;39.108;2023-09-07T01:26:39;0.00;;;0.00;;
51124;SDS011;37163;55.556;39.108;2023-09-07T01:29:09;0.95;;;0.10;;
51124;SDS011;37163;55.556;39.108;2023-09-07T01:31:39;0.05;;;0.05;;
51124;SDS011;37163;55.556;39.108;2023-09-07T01:34:09;0.45;;;0.20;;
51124;SDS011;37163;55.556;39.108;2023-09-07T01:36:38;0.52;;;0.08;;
51124;SDS011;37163;55.556;39.108;2023-09-07T01:39:07;0.10;;;0.10;;
51124;SDS011;37163;55.556;39.108;2023-09-07T01:41:37;0.28;;;0.10;;
51124;SDS011;37163;55.556;39.108;2023-09-07T01:44:06;0.00;;;0.00;;
51124;SDS011;37163;55.556;39.108;2023-09-07T01:46:36;0.10;;;0.10;;
51124;SDS011;37163;55.556;39.108;2023-09-07T01:49:05;0.10;;;0.08;;
51124;SDS011;37163;55.556;39.108;2023-09-07T01:51:35;0.80;;;0.20;;
51124;SDS011;37163;55.556;39.108;2023-09-07T01:54:05;0.00;;;0.00;;
51124;SDS011;37163;55.556;39.108;2023-09-07T01:56:35;0.17;;;0.10;;
51124;SDS011;37163;55.556;39.108;2023-09-07T01:59:07;0.08;;;0.00;;
51124;SDS011;37163;55.556;39.108;2023-09-07T02:01:36;0.00;;;0.00;;
51124;SDS011;37163;55.556;39.108;2023-09-07T02:04:06;0.10;;;0.00;;
51124;SDS011;37163;55.556;39.108;2023-09-07T02:06:35;0.00;;;0.00;;
51124;SDS011;37163;55.556;39.108;2023-09-07T02:09:05;0.03;;;0.00;;
51124;SDS011;37163;55.556;39.108;2023-09-07T02:11:35;0.20;;;0.10;;
51124;SDS011;37163;55.556;39.108;2023-09-07T02:14:06;0.30;;;0.13;;
51124;SDS011;37163;55.556;39.108;2023-09-07T02:16:36;0.40;;;0.10;;
51124;SDS011;37163;55.556;39.108;2023-09-07T02:19:06;0.00;;;0.00;;
51124;SDS011;37163;55.556;39.108;2023-09-07T02:21:35;0.40;;;0.20;;
51124;SDS011;37163;55.556;39.108;2023-09-07T02:24:05;0.13;;;0.03;;
51124;SDS011;37163;55.556;39.108;2023-09-07T02:26:34;0.10;;;0.10;;
51124;SDS011;37163;55.556;39.108;2023-09-07T02:29:09;0.15;;;0.05;;
51124;SDS011;37163;55.556;39.108;2023-09-07T02:31:41;0.20;;;0.20;;
51124;SDS011;37163;55.556;39.108;2023-09-07T02:34:11;0.20;;;0.00;;
51124;SDS011;37163;55.556;39.108;2023-09-07T02:36:40;0.40;;;0.30;;
51124;SDS011;37163;55.556;39.108;2023-09-07T02:39:09;0.00;;;0.00;;
51124;SDS011;37163;55.556;39.108;2023-09-07T02:41:38;0.20;;;0.00;;
51124;SDS011;37163;55.556;39.108;2023-09-07T02:44:07;0.32;;;0.00;;
51124;SDS011;37163;55.556;39.108;2023-09-07T02:46:36;0.15;;;0.00;;
51124;SDS011;37163;55.556;39.108;2023-09-07T02:49:06;0.10;;;0.10;;
51124;SDS011;37163;55.556;39.108;2023-09-07T02:51:35;0.55;;;0.20;;
51124;SDS011;37163;55.556;39.108;2023-09-07T02:54:05;0.10;;;0.10;;
51124;SDS011;37163;55.556;39.108;2023-09-07T02:56:34;0.00;;;0.00;;
51124;SDS011;37163;55.556;39.108;2023-09-07T02:59:03;0.20;;;0.10;;
51124;SDS011;37163;55.556;39.108;2023-09-07T03:01:33;0.00;;;0.00;;
51124;SDS011;37163;55.556;39.108;2023-09-07T03:04:05;0.00;;;0.00;;
51124;SDS011;37163;55.556;39.108;2023-09-07T03:06:36;0.00;;;0.00;;
51124;SDS011;37163;55.556;39.108;2023-09-07T03:09:05;1.13;;;0.08;;
51124;SDS011;37163;55.556;39.108;2023-09-07T03:11:36;0.10;;;0.00;;
51124;SDS011;37163;55.556;39.108;2023-09-07T03:14:07;0.17;;;0.00;;
51124;SDS011;37163;55.556;39.108;2023-09-07T03:16:36;0.10;;;0.00;;
51124;SDS011;37163;55.556;39.108;2023-09-07T03:19:07;0.00;;;0.00;;
51124;SDS011;37163;55.556;39.108;2023-09-07T03:21:37;0.00;;;0.00;;
51124;SDS011;37163;55.556;39.108;2023-09-07T03:24:06;0.10;;;0.00;;
51124;SDS011;37163;55.556;39.108;2023-09-07T03:26:36;0.10;;;0.00;;
51124;SDS011;37163;55.556;39.108;2023-09-07T03:29:06;0.10;;;0.10;;
51124;SDS011;37163;55.556;39.108;2023-09-07T03:31:36;0.10;;;0.03;;
51124;SDS011;37163;55.556;39.108;2023-09-07T03:34:05;0.05;;;0.00;;
51124;SDS011;37163;55.556;39.108;2023-09-07T03:36:35;0.00;;;0.00;;
51124;SDS011;37163;55.556;39.108;2023-09-07T03:39:07;0.00;;;0.00;;
51124;SDS011;37163;55.556;39.108;2023-09-07T03:41:36;0.00;;;0.00;;
51124;SDS011;37163;55.556;39.108;2023-09-07T03:44:06;0.00;;;0.00;;
51124;SDS011;37163;55.556;39.108;2023-09-07T03:46:35;0.00;;;0.00;;
51124;SDS011;37163;55.556;39.108;2023-09-07T03:49:04;0.00;;;0.00;;
51124;SDS011;37163;55.556;39.108;2023-09-07T03:51:33;0.00;;;0.00;;
51124;SDS011;37163;55.556;39.108;2023-09-07T03:54:03;0.00;;;0.00;;
51124;SDS011;37163;55.556;39.108;2023-09-07T03:56:32;0.00;;;0.00;;
51124;SDS011;37163;55.556;39.108;2023-09-07T03:59:02;0.30;;;0.00;;
51124;SDS011;37163;55.556;39.108;2023-09-07T04:01:31;0.22;;;0.03;;
51124;SDS011;37163;55.556;39.108;2023-09-07T04:04:01;0.45;;;0.20;;
51124;SDS011;37163;55.556;39.108;2023-09-07T04:06:30;0.55;;;0.13;;
51124;SDS011;37163;55.556;39.108;2023-09-07T04:08:59;0.00;;;0.00;;
51124;SDS011;37163;55.556;39.108;2023-09-07T04:11:32;0.08;;;0.08;;
51124;SDS011;37163;55.556;39.108;2023-09-07T04:14:01;0.00;;;0.00;;
51124;SDS011;37163;55.556;39.108;2023-09-07T04:16:30;0.00;;;0.00;;
51124;SDS011;37163;55.556;39.108;2023-09-07T04:19:00;0.00;;;0.00;;
51124;SDS011;37163;55.556;39.108;2023-09-07T04:21:30;0.03;;;0.00;;
51124;SDS011;37163;55.556;39.108;2023-09-07T04:23:59;0.20;;;0.00;;
51124;SDS011;37163;55.556;39.108;2023-09-07T04:26:28;0.10;;;0.10;;
51124;SDS011;37163;55.556;39.108;2023-09-07T04:28:58;0.10;;;0.03;;
51124;SDS011;37163;55.556;39.108;2023-09-07T04:31:27;0.00;;;0.00;;
51124;SDS011;37163;55.556;39.108;2023-09-07T04:33:57;0.03;;;0.00;;
51124;SDS011;37163;55.556;39.108;2023-09-07T04:36:28;0.10;;;0.00;;
51124;SDS011;37163;55.556;39.108;2023-09-07T04:38:58;0.00;;;0.00;;
51124;SDS011;37163;55.556;39.108;2023-09-07T04:41:29;0.55;;;0.10;;
51124;SDS011;37163;55.556;39.108;2023-09-07T04:43:58;0.30;;;0.13;;
51124;SDS011;37163;55.556;39.108;2023-09-07T04:46:28;0.10;;;0.10;;
51124;SDS011;37163;55.556;39.108;2023-09-07T04:48:58;0.00;;;0.00;;
51124;SDS011;37163;55.556;39.108;2023-09-07T04:51:27;0.17;;;0.00;;
51124;SDS011;37163;55.556;39.108;2023-09-07T04:53:57;0.00;;;0.00;;
51124;SDS011;37163;55.556;39.108;2023-09-07T04:56:27;0.32;;;0.08;;
51124;SDS011;37163;55.556;39.108;2023-09-07T04:58:56;0.20;;;0.20;;
51124;SDS011;37163;55.556;39.108;2023-09-07T05:01:26;0.22;;;0.13;;
51124;SDS011;37163;55.556;39.108;2023-09-07T05:03:56;0.10;;;0.10;;
51124;SDS011;37163;55.556;39.108;2023-09-07T05:06:27;0.10;;;0.10;;
51124;SDS011;37163;55.556;39.108;2023-09-07T05:09:00;0.45;;;0.00;;
51124;SDS011;37163;55.556;39.108;2023-09-07T05:11:29;0.15;;;0.05;;
51124;SDS011;37163;55.556;39.108;2023-09-07T05:14:02;0.28;;;0.25;;
51124;SDS011;37163;55.556;39.108;2023-09-07T05:16:32;0.20;;;0.10;;
51124;SDS011;37163;55.556;39.108;2023-09-07T05:19:04;0.28;;;0.15;;
51124;SDS011;37163;55.556;39.108;2023-09-07T05:21:33;0.00;;;0.00;;
51124;SDS011;37163;55.556;39.108;2023-09-07T05:24:02;0.43;;;0.08;;
51124;SDS011;37163;55.556;39.108;2023-09-07T05:26:32;0.47;;;0.15;;
51124;SDS011;37163;55.556;39.108;2023-09-07T05:29:01;0.28;;;0.10;;
51124;SDS011;37163;55.556;39.108;2023-09-07T05:31:30;0.00;;;0.00;;
51124;SDS011;37163;55.556;39.108;2023-09-07T05:33:59;0.00;;;0.00;;
51124;SDS011;37163;55.556;39.108;2023-09-07T05:36:29;0.38;;;0.10;;
51124;SDS011;37163;55.556;39.108;2023-09-07T05:38:58;0.00;;;0.00;;
51124;SDS011;37163;55.556;39.108;2023-09-07T05:41:30;0.45;;;0.20;;
51124;SDS011;37163;55.556;39.108;2023-09-07T05:44:00;0.30;;;0.20;;
51124;SDS011;37163;55.556;39.108;2023-09-07T05:46:29;0.10;;;0.10;;
51124;SDS011;37163;55.556;39.108;2023-09-07T05:48:59;0.13;;;0.10;;
51124;SDS011;37163;55.556;39.108;2023-09-07T05:51:28;0.13;;;0.10;;
51124;SDS011;37163;55.556;39.108;2023-09-07T05:53:57;0.10;;;0.10;;
51124;SDS011;37163;55.556;39.108;2023-09-07T05:56:28;0.20;;;0.10;;
51124;SDS011;37163;55.556;39.108;2023-09-07T05:58:59;0.10;;;0.10;;
51124;SDS011;37163;55.556;39.108;2023-09-07T06:01:28;0.40;;;0.10;;
51124;SDS011;37163;55.556;39.108;2023-09-07T06:03:58;0.00;;;0.00;;
51124;SDS011;37163;55.556;39.108;2023-09-07T06:06:27;0.00;;;0.00;;
51124;SDS011;37163;55.556;39.108;2023-09-07T06:08:57;0.00;;;0.00;;
51124;SDS011;37163;55.556;39.108;2023-09-07T06:11:26;0.10;;;0.10;;
51124;SDS011;37163;55.556;39.108;2023-09-07T06:13:59;0.22;;;0.20;;
51124;SDS011;37163;55.556;39.108;2023-09-07T06:16:29;0.20;;;0.20;;
51124;SDS011;37163;55.556;39.108;2023-09-07T06:18:59;0.65;;;0.20;;
51124;SDS011;37163;55.556;39.108;2023-09-07T06:21:28;0.13;;;0.00;;
51124;SDS011;37163;55.556;39.108;2023-09-07T06:23:57;0.13;;;0.10;;
51124;SDS011;37163;55.556;39.108;2023-09-07T06:26:26;0.10;;;0.08;;
51124;SDS011;37163;55.556;39.108;2023-09-07T06:28:55;0.25;;;0.10;;
51124;SDS011;37163;55.556;39.108;2023-09-07T06:31:25;0.15;;;0.10;;
51124;SDS011;37163;55.556;39.108;2023-09-07T06:33:54;0.32;;;0.10;;
51124;SDS011;37163;55.556;39.108;2023-09-07T06:36:24;0.20;;;0.17;;
51124;SDS011;37163;55.556;39.108;2023-09-07T06:38:57;0.10;;;0.10;;
51124;SDS011;37163;55.556;39.108;2023-09-07T06:41:27;0.00;;;0.00;;
51124;SDS011;37163;55.556;39.108;2023-09-07T06:43:57;0.17;;;0.03;;
51124;SDS011;37163;55.556;39.108;2023-09-07T06:46:26;0.22;;;0.10;;
51124;SDS011;37163;55.556;39.108;2023-09-07T06:48:55;0.10;;;0.10;;
51124;SDS011;37163;55.556;39.108;2023-09-07T06:51:25;0.10;;;0.10;;
51124;SDS011;37163;55.556;39.108;2023-09-07T06:53:54;0.30;;;0.13;;
51124;SDS011;37163;55.556;39.108;2023-09-07T06:56:24;0.13;;;0.13;;
51124;SDS011;37163;55.556;39.108;2023-09-07T06:58:56;0.63;;;0.10;;
51124;SDS011;37163;55.556;39.108;2023-09-07T07:01:25;0.00;;;0.00;;
51124;SDS011;37163;55.556;39.108;2023-09-07T07:04:14;0.00;;;0.00;;
51124;SDS011;37163;55.556;39.108;2023-09-07T07:06:46;0.10;;;0.10;;
51124;SDS011;37163;55.556;39.108;2023-09-07T07:09:16;0.20;;;0.10;;
51124;SDS011;37163;55.556;39.108;2023-09-07T07:11:45;0.17;;;0.10;;
51124;SDS011;37163;55.556;39.108;2023-09-07T07:14:15;0.17;;;0.15;;
51124;SDS011;37163;55.556;39.108;2023-09-07T07:16:44;0.32;;;0.17;;
51124;SDS011;37163;55.556;39.108;2023-09-07T07:19:14;0.15;;;0.10;;
51124;SDS011;37163;55.556;39.108;2023-09-07T07:21:44;0.10;;;0.10;;
51124;SDS011;37163;55.556;39.108;2023-09-07T07:24:14;0.38;;;0.20;;
51124;SDS011;37163;55.556;39.108;2023-09-07T07:26:44;0.45;;;0.20;;
51124;SDS011;37163;55.556;39.108;2023-09-07T07:29:13;0.13;;;0.00;;
51124;SDS011;37163;55.556;39.108;2023-09-07T07:31:44;0.55;;;0.20;;
51124;SDS011;37163;55.556;39.108;2023-09-07T07:34:15;0.03;;;0.03;;
51124;SDS011;37163;55.556;39.108;2023-09-07T07:36:45;0.30;;;0.25;;
51124;SDS011;37163;55.556;39.108;2023-09-07T07:39:15;0.30;;;0.20;;
51124;SDS011;37163;55.556;39.108;2023-09-07T07:41:45;0.38;;;0.10;;
51124;SDS011;37163;55.556;39.108;2023-09-07T07:44:14;0.10;;;0.10;;
51124;SDS011;37163;55.556;39.108;2023-09-07T07:46:44;0.20;;;0.20;;
51124;SDS011;37163;55.556;39.108;2023-09-07T07:49:15;0.25;;;0.10;;
51124;SDS011;37163;55.556;39.108;2023-09-07T07:51:45;0.25;;;0.10;;
51124;SDS011;37163;55.556;39.108;2023-09-07T07:54:14;0.20;;;0.10;;
51124;SDS011;37163;55.556;39.108;2023-09-07T07:56:44;0.10;;;0.00;;
51124;SDS011;37163;55.556;39.108;2023-09-07T07:59:13;0.30;;;0.13;;
51124;SDS011;37163;55.556;39.108;2023-09-07T08:01:43;0.45;;;0.10;;
51124;SDS011;37163;55.556;39.108;2023-09-07T08:04:12;0.10;;;0.00;;
51124;SDS011;37163;55.556;39.108;2023-09-07T08:06:41;0.35;;;0.10;;
51124;SDS011;37163;55.556;39.108;2023-09-07T08:09:12;0.70;;;0.05;;
51124;SDS011;37163;55.556;39.108;2023-09-07T08:11:44;0.35;;;0.10;;
51124;SDS011;37163;55.556;39.108;2023-09-07T08:14:17;0.15;;;0.15;;
51124;SDS011;37163;55.556;39.108;2023-09-07T08:16:48;0.20;;;0.10;;
51124;SDS011;37163;55.556;39.108;2023-09-07T08:19:19;0.22;;;0.20;;
51124;SDS011;37163;55.556;39.108;2023-09-07T08:21:50;0.43;;;0.20;;
51124;SDS011;37163;55.556;39.108;2023-09-07T08:24:24;0.10;;;0.10;;
51124;SDS011;37163;55.556;39.108;2023-09-07T08:26:55;0.10;;;0.10;;
51124;SDS011;37163;55.556;39.108;2023-09-07T08:29:27;0.15;;;0.08;;
51124;SDS011;37163;55.556;39.108;2023-09-07T08:31:58;0.20;;;0.17;;
51124;SDS011;37163;55.556;39.108;2023-09-07T08:34:29;0.22;;;0.10;;
51124;SDS011;37163;55.556;39.108;2023-09-07T08:37:01;0.10;;;0.10;;
51124;SDS011;37163;55.556;39.108;2023-09-07T08:39:36;0.00;;;0.00;;
51124;SDS011;37163;55.556;39.108;2023-09-07T08:42:07;0.17;;;0.00;;
51124;SDS011;37163;55.556;39.108;2023-09-07T08:44:38;0.40;;;0.10;;
51124;SDS011;37163;55.556;39.108;2023-09-07T08:47:08;0.45;;;0.10;;
51124;SDS011;37163;55.556;39.108;2023-09-07T08:49:38;0.00;;;0.00;;
51124;SDS011;37163;55.556;39.108;2023-09-07T08:52:09;3.20;;;1.00;;
51124;SDS011;37163;55.556;39.108;2023-09-07T08:54:39;2.45;;;0.93;;
51124;SDS011;37163;55.556;39.108;2023-09-07T08:57:10;1.90;;;0.50;;
51124;SDS011;37163;55.556;39.108;2023-09-07T08:59:40;0.65;;;0.45;;
51124;SDS011;37163;55.556;39.108;2023-09-07T09:02:10;2.67;;;0.63;;
51124;SDS011;37163;55.556;39.108;2023-09-07T09:04:40;2.08;;;0.90;;
51124;SDS011;37163;55.556;39.108;2023-09-07T09:07:10;4.30;;;1.30;;
51124;SDS011;37163;55.556;39.108;2023-09-07T09:09:39;1.65;;;0.70;;
51124;SDS011;37163;55.556;39.108;2023-09-07T09:12:09;2.97;;;1.00;;
51124;SDS011;37163;55.556;39.108;2023-09-07T09:14:43;1.80;;;0.50;;
51124;SDS011;37163;55.556;39.108;2023-09-07T09:17:13;3.00;;;1.30;;
51124;SDS011;37163;55.556;39.108;2023-09-07T09:19:43;4.53;;;1.30;;
51124;SDS011;37163;55.556;39.108;2023-09-07T09:22:13;2.25;;;0.95;;
51124;SDS011;37163;55.556;39.108;2023-09-07T09:24:43;2.15;;;0.63;;
51124;SDS011;37163;55.556;39.108;2023-09-07T09:27:16;1.60;;;0.43;;
51124;SDS011;37163;55.556;39.108;2023-09-07T09:29:45;0.43;;;0.30;;
51124;SDS011;37163;55.556;39.108;2023-09-07T09:32:16;1.55;;;0.40;;
51124;SDS011;37163;55.556;39.108;2023-09-07T09:34:46;1.60;;;0.30;;
51124;SDS011;37163;55.556;39.108;2023-09-07T09:37:15;0.25;;;0.25;;
51124;SDS011;37163;55.556;39.108;2023-09-07T09:39:48;1.02;;;0.20;;
51124;SDS011;37163;55.556;39.108;2023-09-07T09:44:50;0.00;;;0.00;;
51124;SDS011;37163;55.556;39.108;2023-09-07T09:47:19;0.20;;;0.20;;
51124;SDS011;37163;55.556;39.108;2023-09-07T09:49:50;0.95;;;0.20;;
51124;SDS011;37163;55.556;39.108;2023-09-07T09:52:19;0.28;;;0.10;;
51124;SDS011;37163;55.556;39.108;2023-09-07T09:54:49;0.85;;;0.38;;
51124;SDS011;37163;55.556;39.108;2023-09-07T09:57:19;0.50;;;0.30;;
51124;SDS011;37163;55.556;39.108;2023-09-07T09:59:48;0.95;;;0.28;;
51124;SDS011;37163;55.556;39.108;2023-09-07T10:02:18;0.85;;;0.43;;
51124;SDS011;37163;55.556;39.108;2023-09-07T10:04:47;0.43;;;0.20;;
51124;SDS011;37163;55.556;39.108;2023-09-07T10:07:17;0.30;;;0.15;;
51124;SDS011;37163;55.556;39.108;2023-09-07T10:09:55;0.47;;;0.30;;
51124;SDS011;37163;55.556;39.108;2023-09-07T10:12:27;0.17;;;0.13;;
51124;SDS011;37163;55.556;39.108;2023-09-07T10:15:05;1.20;;;0.10;;
51124;SDS011;37163;55.556;39.108;2023-09-07T10:17:45;0.28;;;0.20;;
51124;SDS011;37163;55.556;39.108;2023-09-07T10:20:16;0.30;;;0.10;;
51124;SDS011;37163;55.556;39.108;2023-09-07T10:22:49;0.30;;;0.10;;
51124;SDS011;37163;55.556;39.108;2023-09-07T10:25:29;0.65;;;0.25;;
51124;SDS011;37163;55.556;39.108;2023-09-07T10:28:02;0.28;;;0.20;;
51124;SDS011;37163;55.556;39.108;2023-09-07T10:30:31;0.05;;;0.05;;
51124;SDS011;37163;55.556;39.108;2023-09-07T10:33:00;0.57;;;0.30;;
51124;SDS011;37163;55.556;39.108;2023-09-07T10:35:29;0.32;;;0.20;;
51124;SDS011;37163;55.556;39.108;2023-09-07T10:38:12;2.33;;;0.20;;
51124;SDS011;37163;55.556;39.108;2023-09-07T10:40:45;0.10;;;0.10;;
51124;SDS011;37163;55.556;39.108;2023-09-07T10:43:16;0.32;;;0.10;;
51124;SDS011;37163;55.556;39.108;2023-09-07T10:45:46;0.20;;;0.13;;
51124;SDS011;37163;55.556;39.108;2023-09-07T10:48:16;0.30;;;0.20;;
51124;SDS011;37163;55.556;39.108;2023-09-07T10:50:46;0.93;;;0.22;;
51124;SDS011;37163;55.556;39.108;2023-09-07T10:53:24;0.30;;;0.20;;
51124;SDS011;37163;55.556;39.108;2023-09-07T10:55:57;0.20;;;0.05;;
51124;SDS011;37163;55.556;39.108;2023-09-07T11:00:59;0.28;;;0.10;;
51124;SDS011;37163;55.556;39.108;2023-09-07T11:03:29;0.00;;;0.00;;
51124;SDS011;37163;55.556;39.108;2023-09-07T11:06:09;0.10;;;0.10;;
51124;SDS011;37163;55.556;39.108;2023-09-07T11:08:47;0.10;;;0.00;;
51124;SDS011;37163;55.556;39.108;2023-09-07T11:11:17;0.10;;;0.00;;
51124;SDS011;37163;55.556;39.108;2023-09-07T11:13:48;0.10;;;0.10;;
51124;SDS011;37163;55.556;39.108;2023-09-07T11:16:19;0.05;;;0.00;;
51124;SDS011;37163;55.556;39.108;2023-09-07T11:18:48;0.22;;;0.20;;
51124;SDS011;37163;55.556;39.108;2023-09-07T11:21:20;1.52;;;0.55;;
51124;SDS011;37163;55.556;39.108;2023-09-07T11:23:52;1.05;;;0.35;;
51124;SDS011;37163;55.556;39.108;2023-09-07T11:26:22;0.80;;;0.40;;
51124;SDS011;37163;55.556;39.108;2023-09-07T11:28:53;0.47;;;0.43;;
51124;SDS011;37163;55.556;39.108;2023-09-07T11:31:23;0.28;;;0.13;;
51124;SDS011;37163;55.556;39.108;2023-09-07T11:33:53;0.50;;;0.40;;
51124;SDS011;37163;55.556;39.108;2023-09-07T11:36:23;0.32;;;0.30;;
51124;SDS011;37163;55.556;39.108;2023-09-07T11:38:54;0.73;;;0.20;;
51124;SDS011;37163;55.556;39.108;2023-09-07T11:41:23;0.45;;;0.17;;
51124;SDS011;37163;55.556;39.108;2023-09-07T11:43:53;0.40;;;0.10;;
51124;SDS011;37163;55.556;39.108;2023-09-07T11:46:22;0.35;;;0.20;;
51124;SDS011;37163;55.556;39.108;2023-09-07T11:48:52;0.65;;;0.10;;
51124;SDS011;37163;55.556;39.108;2023-09-07T11:51:22;0.10;;;0.00;;
51124;SDS011;37163;55.556;39.108;2023-09-07T11:53:52;0.30;;;0.10;;
51124;SDS011;37163;55.556;39.108;2023-09-07T11:56:23;0.22;;;0.10;;
51124;SDS011;37163;55.556;39.108;2023-09-07T11:58:52;0.45;;;0.30;;
51124;SDS011;37163;55.556;39.108;2023-09-07T12:01:23;0.10;;;0.10;;
51124;SDS011;37163;55.556;39.108;2023-09-07T12:03:53;0.50;;;0.20;;
51124;SDS011;37163;55.556;39.108;2023-09-07T12:06:22;1.05;;;0.47;;
51124;SDS011;37163;55.556;39.108;2023-09-07T12:08:59;1.25;;;0.22;;
51124;SDS011;37163;55.556;39.108;2023-09-07T12:11:29;0.80;;;0.30;;
51124;SDS011;37163;55.556;39.108;2023-09-07T12:13:59;0.70;;;0.30;;
51124;SDS011;37163;55.556;39.108;2023-09-07T12:16:29;0.85;;;0.50;;
51124;SDS011;37163;55.556;39.108;2023-09-07T12:18:58;0.40;;;0.28;;
51124;SDS011;37163;55.556;39.108;2023-09-07T12:21:28;0.70;;;0.35;;
51124;SDS011;37163;55.556;39.108;2023-09-07T12:23:57;0.13;;;0.10;;
51124;SDS011;37163;55.556;39.108;2023-09-07T12:26:27;0.10;;;0.10;;
51124;SDS011;37163;55.556;39.108;2023-09-07T12:28:57;0.63;;;0.20;;
51124;SDS011;37163;55.556;39.108;2023-09-07T12:31:26;0.20;;;0.20;;
51124;SDS011;37163;55.556;39.108;2023-09-07T12:33:57;0.20;;;0.10;;
51124;SDS011;37163;55.556;39.108;2023-09-07T12:36:26;0.10;;;0.10;;
51124;SDS011;37163;55.556;39.108;2023-09-07T12:38:56;0.10;;;0.10;;
51124;SDS011;37163;55.556;39.108;2023-09-07T12:41:27;0.90;;;0.10;;
51124;SDS011;37163;55.556;39.108;2023-09-07T12:43:57;0.52;;;0.20;;
51124;SDS011;37163;55.556;39.108;2023-09-07T12:46:26;1.45;;;0.57;;
51124;SDS011;37163;55.556;39.108;2023-09-07T12:48:56;0.93;;;0.30;;
51124;SDS011;37163;55.556;39.108;2023-09-07T12:51:26;0.50;;;0.40;;
51124;SDS011;37163;55.556;39.108;2023-09-07T12:53:56;0.40;;;0.30;;
51124;SDS011;37163;55.556;39.108;2023-09-07T12:56:26;0.93;;;0.43;;
51124;SDS011;37163;55.556;39.108;2023-09-07T12:58:55;0.47;;;0.25;;
51124;SDS011;37163;55.556;39.108;2023-09-07T13:01:25;0.35;;;0.17;;
51124;SDS011;37163;55.556;39.108;2023-09-07T13:03:56;0.30;;;0.15;;
51124;SDS011;37163;55.556;39.108;2023-09-07T13:06:26;1.20;;;0.40;;
51124;SDS011;37163;55.556;39.108;2023-09-07T13:08:56;1.88;;;0.50;;
51124;SDS011;37163;55.556;39.108;2023-09-07T13:11:26;1.15;;;0.68;;
51124;SDS011;37163;55.556;39.108;2023-09-07T13:13:55;0.60;;;0.30;;
51124;SDS011;37163;55.556;39.108;2023-09-07T13:16:25;0.60;;;0.40;;
51124;SDS011;37163;55.556;39.108;2023-09-07T13:18:55;0.68;;;0.40;;
51124;SDS011;37163;55.556;39.108;2023-09-07T13:21:26;0.55;;;0.43;;
51124;SDS011;37163;55.556;39.108;2023-09-07T13:23:56;1.90;;;0.57;;
51124;SDS011;37163;55.556;39.108;2023-09-07T13:26:25;0.57;;;0.30;;
51124;SDS011;37163;55.556;39.108;2023-09-07T13:28:54;0.17;;;0.10;;
51124;SDS011;37163;55.556;39.108;2023-09-07T13:31:24;0.10;;;0.10;;
51124;SDS011;37163;55.556;39.108;2023-09-07T13:33:53;0.30;;;0.20;;
51124;SDS011;37163;55.556;39.108;2023-09-07T13:36:23;0.10;;;0.10;;
51124;SDS011;37163;55.556;39.108;2023-09-07T13:38:52;0.55;;;0.15;;
51124;SDS011;37163;55.556;39.108;2023-09-07T13:41:23;0.10;;;0.10;;
51124;SDS011;37163;55.556;39.108;2023-09-07T13:43:52;0.10;;;0.10;;
51124;SDS011;37163;55.556;39.108;2023-09-07T13:46:22;0.10;;;0.10;;
51124;SDS011;37163;55.556;39.108;2023-09-07T13:48:52;0.10;;;0.10;;
51124;SDS011;37163;55.556;39.108;2023-09-07T13:51:21;0.43;;;0.10;;
51124;SDS011;37163;55.556;39.108;2023-09-07T13:53:51;1.17;;;0.40;;
51124;SDS011;37163;55.556;39.108;2023-09-07T13:56:22;1.23;;;0.50;;
51124;SDS011;37163;55.556;39.108;2023-09-07T13:58:51;0.13;;;0.13;;
51124;SDS011;37163;55.556;39.108;2023-09-07T14:01:20;0.32;;;0.20;;
51124;SDS011;37163;55.556;39.108;2023-09-07T14:03:50;0.93;;;0.43;;
51124;SDS011;37163;55.556;39.108;2023-09-07T14:06:21;0.45;;;0.30;;
51124;SDS011;37163;55.556;39.108;2023-09-07T14:08:51;0.10;;;0.10;;
51124;SDS011;37163;55.556;39.108;2023-09-07T14:11:21;0.20;;;0.15;;
51124;SDS011;37163;55.556;39.108;2023-09-07T14:13:51;0.40;;;0.25;;
51124;SDS011;37163;55.556;39.108;2023-09-07T14:16:20;0.38;;;0.22;;
51124;SDS011;37163;55.556;39.108;2023-09-07T14:18:50;0.22;;;0.10;;
51124;SDS011;37163;55.556;39.108;2023-09-07T14:21:20;0.00;;;0.00;;
51124;SDS011;37163;55.556;39.108;2023-09-07T14:23:50;0.20;;;0.17;;
51124;SDS011;37163;55.556;39.108;2023-09-07T14:26:20;0.68;;;0.17;;
51124;SDS011;37163;55.556;39.108;2023-09-07T14:28:50;0.00;;;0.00;;
51124;SDS011;37163;55.556;39.108;2023-09-07T14:31:19;0.10;;;0.00;;
51124;SDS011;37163;55.556;39.108;2023-09-07T14:33:49;0.00;;;0.00;;
51124;SDS011;37163;55.556;39.108;2023-09-07T14:36:18;0.00;;;0.00;;
51124;SDS011;37163;55.556;39.108;2023-09-07T14:38:48;0.00;;;0.00;;
51124;SDS011;37163;55.556;39.108;2023-09-07T14:41:17;0.10;;;0.10;;
51124;SDS011;37163;55.556;39.108;2023-09-07T14:43:48;0.00;;;0.00;;
51124;SDS011;37163;55.556;39.108;2023-09-07T14:46:18;0.10;;;0.10;;
51124;SDS011;37163;55.556;39.108;2023-09-07T14:48:50;0.05;;;0.05;;
51124;SDS011;37163;55.556;39.108;2023-09-07T14:51:22;0.08;;;0.08;;
51124;SDS011;37163;55.556;39.108;2023-09-07T14:53:53;0.08;;;0.00;;
51124;SDS011;37163;55.556;39.108;2023-09-07T14:56:24;0.00;;;0.00;;